Time;durP1;ratioP1;P1;durP2;ratioP2;P2;SDS_P1;SDS_P2;PMS_P1;PMS_P2;Temp;Humidity;BMP_temperature;BMP_pressure;BME280_temperature;BME280_humidity;BME280_pressure;Samples;Min_cycle;Max_cycle;Signal;HPM_P1;HPM_P2
2022/06/11 00:02:08;;;;;;;6.18;1.63;;;;;;;19.40;73.38;101848.19;5005711;28;20130;-69
2022/06/11 00:04:39;;;;;;;5.40;1.90;;;;;;;19.39;73.18;101856.25;4966526;28;20484;-69
2022/06/11 00:07:18;;;;;;;8.65;1.77;;;;;;;19.39;73.44;101851.00;5002759;28;20034;-69
2022/06/11 00:09:44;;;;;;;2.60;1.10;;;;;;;19.37;73.27;101853.81;4998688;28;20040;-69
2022/06/11 00:12:11;;;;;;;8.07;1.52;;;;;;;19.42;73.20;101851.44;5016397;28;20450;-68
2022/06/11 00:14:39;;;;;;;6.55;2.55;;;;;;;19.36;73.56;101849.53;5004002;28;20041;-69
2022/06/11 00:17:07;;;;;;;3.58;1.52;;;;;;;19.34;73.42;101862.06;4989156;28;20025;-69
2022/06/11 00:19:34;;;;;;;5.20;1.55;;;;;;;19.33;73.43;101859.66;4996925;28;20026;-69
2022/06/11 00:22:00;;;;;;;8.25;1.83;;;;;;;19.31;73.42;101867.72;5004171;28;20038;-69
2022/06/11 00:24:27;;;;;;;7.63;1.45;;;;;;;19.29;73.38;101858.38;4988379;28;20035;-68
2022/06/11 00:26:55;;;;;;;2.70;1.52;;;;;;;19.25;73.49;101864.03;5003186;28;20033;-69
2022/06/11 00:29:24;;;;;;;2.30;1.20;;;;;;;19.24;73.36;101857.13;4996854;28;20038;-69
2022/06/11 00:31:50;;;;;;;5.60;1.92;;;;;;;19.22;73.38;101868.84;5001936;28;20033;-69
2022/06/11 00:34:15;;;;;;;3.33;1.40;;;;;;;19.22;73.28;101864.41;5013343;28;20034;-69
2022/06/11 00:36:43;;;;;;;3.88;1.40;;;;;;;19.18;73.50;101865.78;4990360;28;20041;-69
2022/06/11 00:39:10;;;;;;;4.45;1.55;;;;;;;19.15;73.71;101865.34;4989914;28;20480;-69
2022/06/11 00:41:39;;;;;;;4.30;2.25;;;;;;;19.14;74.01;101868.97;5004291;28;20416;-69
2022/06/11 00:44:05;;;;;;;5.28;1.45;;;;;;;19.05;74.36;101869.06;4990265;28;20045;-69
2022/06/11 00:47:06;;;;;;;2.90;1.48;;;;;;;18.99;74.63;101869.84;5000179;28;20034;-69
2022/06/11 00:49:53;;;;;;;8.70;1.90;;;;;;;18.94;74.81;101866.94;4997966;28;20034;-69
2022/06/11 00:52:41;;;;;;;4.38;1.48;;;;;;;18.91;74.79;101862.06;5004172;28;20029;-69
2022/06/11 00:55:16;;;;;;;4.80;1.80;;;;;;;18.84;75.07;101869.88;4984896;28;20443;-69
2022/06/11 00:57:46;;;;;;;4.18;1.55;;;;;;;18.80;75.23;101862.53;4989840;28;20039;-68
2022/06/11 01:00:21;;;;;;;6.18;1.88;;;;;;;18.76;75.38;101864.69;4992080;28;20116;-69
2022/06/11 01:02:47;;;;;;;3.42;1.42;;;;;;;18.72;75.69;101865.22;4983096;28;20038;-69
2022/06/11 01:05:16;;;;;;;3.47;1.77;;;;;;;18.67;75.95;101860.53;5002787;28;20111;-69
2022/06/11 01:08:07;;;;;;;4.28;1.88;;;;;;;18.65;75.96;101862.53;4999482;28;20030;-69
2022/06/11 01:10:45;;;;;;;6.72;1.73;;;;;;;18.62;76.29;101858.47;5005330;28;20042;-69
2022/06/11 01:13:17;;;;;;;3.83;1.20;;;;;;;18.57;76.56;101858.22;5011166;28;20104;-69
2022/06/11 01:15:53;;;;;;;4.55;1.40;;;;;;;18.49;76.96;101858.28;5017592;28;20096;-68
2022/06/11 01:18:49;;;;;;;4.75;1.73;;;;;;;18.41;77.48;101864.47;5008338;28;20121;-69
2022/06/11 01:21:37;;;;;;;3.28;1.70;;;;;;;18.35;77.92;101861.75;4991995;28;20027;-69
2022/06/11 01:24:27;;;;;;;2.63;1.60;;;;;;;18.26;78.29;101859.22;5004921;28;20080;-68
2022/06/11 01:27:20;;;;;;;3.33;1.40;;;;;;;18.21;78.52;101855.50;5014768;28;20049;-69
2022/06/11 01:30:33;;;;;;;7.40;1.77;;;;;;;18.14;78.86;101852.81;5016963;28;20042;-69
2022/06/11 01:33:27;;;;;;;5.97;1.97;;;;;;;18.08;79.13;101859.59;4967029;28;20050;-69
2022/06/11 01:36:02;;;;;;;5.47;1.92;;;;;;;17.97;79.63;101857.41;5006147;28;20061;-69
2022/06/11 01:38:37;;;;;;;7.43;2.20;;;;;;;17.92;79.92;101854.50;5017530;28;20120;-69
2022/06/11 01:41:05;;;;;;;4.82;2.00;;;;;;;17.86;80.30;101863.09;5005274;28;20400;-69
2022/06/11 01:43:36;;;;;;;6.15;1.70;;;;;;;17.80;80.56;101858.50;5002338;28;20389;-69
2022/06/11 01:46:12;;;;;;;4.32;1.75;;;;;;;17.77;80.65;101859.69;5002835;28;20045;-69
2022/06/11 01:48:54;;;;;;;5.22;1.73;;;;;;;17.70;80.78;101851.69;5001930;28;20556;-69
2022/06/11 01:51:44;;;;;;;3.15;1.70;;;;;;;17.64;81.12;101852.41;4989676;28;20026;-69
2022/06/11 01:54:22;;;;;;;8.05;1.58;;;;;;;17.61;81.12;101859.81;4999761;28;20030;-68
2022/06/11 01:57:05;;;;;;;4.80;1.70;;;;;;;17.59;81.10;101852.13;5020909;28;20034;-69
2022/06/11 01:59:34;;;;;;;3.72;1.88;;;;;;;17.56;81.19;101857.72;4997869;28;20045;-69
2022/06/11 02:02:29;;;;;;;5.00;1.90;;;;;;;17.51;81.50;101860.06;5015395;28;20049;-69
2022/06/11 02:05:24;;;;;;;7.68;2.22;;;;;;;17.44;81.62;101864.38;4986861;28;20046;-68
2022/06/11 02:08:04;;;;;;;5.25;1.92;;;;;;;17.35;82.30;101865.41;5003344;28;20030;-68
2022/06/11 02:10:54;;;;;;;5.63;2.05;;;;;;;17.28;82.69;101870.56;5003134;28;20038;-69
2022/06/11 02:13:43;;;;;;;3.75;1.70;;;;;;;17.24;83.06;101871.91;4994966;28;20037;-69
2022/06/11 02:16:25;;;;;;;2.70;1.40;;;;;;;17.18;83.15;101864.72;5003398;28;20543;-69
2022/06/11 02:18:52;;;;;;;5.40;2.00;;;;;;;17.14;83.26;101864.28;5000780;28;20034;-69
2022/06/11 02:21:24;;;;;;;6.70;2.38;;;;;;;17.07;83.52;101876.44;4989711;28;20114;-69
2022/06/11 02:23:53;;;;;;;5.22;1.75;;;;;;;17.04;83.66;101874.13;5017057;28;20050;-69
2022/06/11 02:26:31;;;;;;;6.53;1.58;;;;;;;17.00;83.95;101872.84;4987626;28;20081;-68
2022/06/11 02:28:58;;;;;;;3.42;1.50;;;;;;;16.97;84.02;101873.19;4988486;28;20038;-69
2022/06/11 02:31:29;;;;;;;4.00;1.42;;;;;;;16.95;84.11;101870.75;4987465;28;20049;-69
2022/06/11 02:33:55;;;;;;;5.05;2.13;;;;;;;16.93;84.18;101867.47;5006256;28;20042;-69
2022/06/11 02:36:24;;;;;;;7.40;1.80;;;;;;;16.90;84.06;101866.03;5001368;28;20096;-69
2022/06/11 02:38:50;;;;;;;5.88;1.95;;;;;;;16.87;84.32;101868.97;5000023;28;20616;-68
2022/06/11 02:41:23;;;;;;;6.68;2.33;;;;;;;16.82;84.37;101871.31;5005853;28;20030;-68
2022/06/11 02:43:49;;;;;;;;;;;;;;;16.78;84.60;101877.84;4991885;28;20030;-69
2022/06/11 02:49:00;;;;;;;4.53;1.88;;;;;;;16.69;85.02;101886.72;5013951;28;20029;-68
2022/06/11 02:51:27;;;;;;;9.73;2.35;;;;;;;16.65;85.32;101881.03;4988312;28;20030;-69
2022/06/11 02:53:53;;;;;;;5.45;2.00;;;;;;;16.62;85.38;101880.53;5004076;28;20538;-67
2022/06/11 02:56:19;;;;;;;11.70;2.60;;;;;;;16.59;85.62;101883.50;4970604;28;20030;-69
2022/06/11 02:58:45;;;;;;;4.38;1.70;;;;;;;16.55;85.78;101891.66;4986687;28;21979;-69
2022/06/11 03:01:11;;;;;;;3.25;1.67;;;;;;;16.53;85.91;101890.22;4985017;28;20065;-69
2022/06/11 03:03:37;;;;;;;3.28;1.90;;;;;;;16.50;85.95;101893.16;4990654;28;20174;-69
2022/06/11 03:06:04;;;;;;;6.03;2.35;;;;;;;16.45;86.15;101890.25;4986491;28;20034;-68
2022/06/11 03:08:30;;;;;;;4.13;2.35;;;;;;;16.39;86.19;101889.13;4988618;28;20041;-69
2022/06/11 03:10:56;;;;;;;3.58;1.83;;;;;;;16.34;86.45;101883.56;5011964;28;20022;-69
2022/06/11 03:13:23;;;;;;;5.03;2.00;;;;;;;16.31;86.71;101887.34;5017220;28;20065;-69
2022/06/11 03:15:49;;;;;;;6.20;2.60;;;;;;;16.28;86.84;101884.25;4997783;28;20085;-69
2022/06/11 03:18:15;;;;;;;5.30;2.10;;;;;;;16.26;86.98;101881.78;5016205;28;20041;-68
2022/06/11 03:20:41;;;;;;;6.18;2.33;;;;;;;16.25;87.05;101887.19;5013967;28;20026;-68
2022/06/11 03:23:07;;;;;;;5.10;2.33;;;;;;;16.20;87.66;101887.69;4997177;28;20558;-69
2022/06/11 03:25:34;;;;;;;3.75;2.00;;;;;;;16.16;87.89;101891.59;5004774;28;20029;-69
2022/06/11 03:28:13;;;;;;;5.30;2.45;;;;;;;16.11;88.40;101883.47;4968610;28;20550;-69
2022/06/11 03:30:39;;;;;;;5.03;2.03;;;;;;;16.07;88.58;101884.78;5012684;28;20042;-68
2022/06/11 03:33:05;;;;;;;5.07;2.30;;;;;;;16.04;88.76;101891.13;4982966;28;20104;-68
2022/06/11 03:35:31;;;;;;;4.22;2.63;;;;;;;16.01;89.02;101886.25;5003386;28;20068;-68
2022/06/11 03:37:57;;;;;;;6.50;2.38;;;;;;;15.96;89.24;101891.97;4986316;28;20045;-68
2022/06/11 03:40:23;;;;;;;4.70;2.47;;;;;;;15.95;89.32;101889.50;5015653;28;20033;-68
2022/06/11 03:42:49;;;;;;;4.47;2.20;;;;;;;15.92;89.27;101889.84;4983799;28;20132;-69
2022/06/11 03:45:16;;;;;;;3.20;1.90;;;;;;;15.93;89.48;101896.72;5013820;28;20116;-69
2022/06/11 03:47:43;;;;;;;5.25;2.67;;;;;;;15.91;89.44;101894.25;4998080;28;20029;-69
2022/06/11 03:50:16;;;;;;;5.45;2.38;;;;;;;15.91;89.54;101899.47;4996480;28;20034;-69
2022/06/11 03:52:42;;;;;;;3.22;2.40;;;;;;;15.91;89.56;101909.94;4998546;28;20045;-69
2022/06/11 03:55:08;;;;;;;5.18;2.22;;;;;;;15.90;89.69;101908.31;5000435;28;20030;-69
2022/06/11 03:57:34;;;;;;;4.82;2.33;;;;;;;15.88;89.85;101915.53;5002350;28;20084;-69
2022/06/11 03:59:59;;;;;;;5.25;2.20;;;;;;;15.87;89.99;101913.06;4999758;28;20553;-68
2022/06/11 04:02:25;;;;;;;4.57;2.35;;;;;;;15.87;90.17;101919.09;5010693;28;20532;-68
2022/06/11 04:04:50;;;;;;;3.65;1.55;;;;;;;15.86;90.07;101914.03;5000457;28;20033;-68
2022/06/11 04:07:16;;;;;;;6.15;1.85;;;;;;;15.83;90.16;101907.34;4988069;28;20088;-69
2022/06/11 04:09:43;;;;;;;12.05;3.45;;;;;;;15.81;90.19;101901.47;4987830;28;20084;-69
2022/06/11 04:12:15;;;;;;;6.78;3.60;;;;;;;15.83;90.41;101909.16;4999441;28;20504;-69
2022/06/11 04:14:43;;;;;;;6.88;3.15;;;;;;;15.82;90.44;101913.53;4977504;28;20400;-69
2022/06/11 04:17:33;;;;;;;6.53;3.35;;;;;;;15.81;90.76;101914.53;5002494;28;20042;-69
2022/06/11 04:19:59;;;;;;;5.95;2.97;;;;;;;15.82;91.01;101916.16;4969395;28;20586;-69
2022/06/11 04:22:24;;;;;;;10.45;3.80;;;;;;;15.86;91.03;101919.25;5003302;28;20046;-68
2022/06/11 04:24:50;;;;;;;6.72;2.30;;;;;;;15.89;90.82;101911.91;5011550;28;20034;-68
2022/06/11 04:27:18;;;;;;;7.00;2.92;;;;;;;15.93;90.90;101915.81;5014627;28;20511;-68
2022/06/11 04:29:50;;;;;;;5.32;2.38;;;;;;;16.02;90.86;101924.50;4987821;28;20443;-69
2022/06/11 04:32:17;;;;;;;3.92;2.70;;;;;;;16.10;90.88;101926.28;5000837;28;20038;-69
2022/06/11 04:34:44;;;;;;;5.55;2.45;;;;;;;16.18;90.93;101935.94;4988595;28;20072;-69
2022/06/11 04:37:13;;;;;;;5.50;2.35;;;;;;;16.27;91.46;101934.94;4990478;28;20040;-69
2022/06/11 04:39:42;;;;;;;4.93;2.42;;;;;;;16.34;91.85;101931.47;4989783;28;20391;-69
2022/06/11 04:42:11;;;;;;;4.95;2.53;;;;;;;16.39;92.18;101933.63;5005437;28;20034;-69
2022/06/11 04:44:37;;;;;;;5.75;2.50;;;;;;;16.42;91.94;101930.66;5017995;28;20057;-69
2022/06/11 04:47:03;;;;;;;6.75;2.70;;;;;;;16.47;92.31;101935.41;4992105;28;20026;-69
2022/06/11 04:49:28;;;;;;;4.43;2.80;;;;;;;16.53;92.17;101929.47;5007281;28;20064;-69
2022/06/11 04:51:54;;;;;;;7.45;2.65;;;;;;;16.54;92.26;101931.13;4990489;28;20025;-68
2022/06/11 04:54:20;;;;;;;4.38;2.53;;;;;;;16.57;92.26;101935.22;4991742;28;20104;-69
2022/06/11 04:56:45;;;;;;;7.47;2.92;;;;;;;16.58;92.48;101937.66;5016663;28;20037;-69
2022/06/11 04:59:11;;;;;;;9.82;3.38;;;;;;;16.64;92.52;101930.94;5011373;28;20033;-69
2022/06/11 05:01:37;;;;;;;7.15;3.10;;;;;;;16.65;92.42;101930.78;5008268;28;20034;-69
2022/06/11 05:04:03;;;;;;;6.32;2.53;;;;;;;16.68;92.43;101935.66;4990040;28;20484;-69
2022/06/11 05:06:32;;;;;;;4.80;3.10;;;;;;;16.73;92.25;101940.41;5005123;28;20069;-69
2022/06/11 05:08:58;;;;;;;11.05;3.30;;;;;;;16.77;91.80;101938.25;4988120;28;20038;-68
2022/06/11 05:11:24;;;;;;;6.43;2.60;;;;;;;16.78;91.92;101935.44;5006420;28;20044;-68
2022/06/11 05:13:50;;;;;;;5.53;2.28;;;;;;;16.82;91.78;101938.56;5009141;28;20415;-68
2022/06/11 05:16:18;;;;;;;6.53;2.38;;;;;;;16.85;91.63;101941.69;5003615;28;20048;-69
2022/06/11 05:18:44;;;;;;;7.85;2.40;;;;;;;16.88;91.07;101938.72;4993595;28;20044;-69
2022/06/11 05:21:10;;;;;;;7.72;2.55;;;;;;;16.90;90.93;101939.38;5002900;28;20100;-69
2022/06/11 05:23:36;;;;;;;5.75;2.35;;;;;;;16.97;90.99;101941.31;5007062;28;20041;-69
2022/06/11 05:26:02;;;;;;;8.00;2.80;;;;;;;17.05;90.97;101938.66;4990969;28;20037;-68
2022/06/11 05:28:29;;;;;;;7.47;3.13;;;;;;;17.06;90.73;101941.09;4991742;28;20034;-69
2022/06/11 05:30:56;;;;;;;4.97;2.53;;;;;;;17.06;90.72;101951.56;5013836;28;20084;-69
2022/06/11 05:33:23;;;;;;;4.30;2.70;;;;;;;17.12;90.28;101948.28;4974997;28;20454;-68
2022/06/11 05:35:50;;;;;;;7.30;2.60;;;;;;;17.16;90.31;101935.66;4988061;28;20399;-68
2022/06/11 05:38:20;;;;;;;9.00;2.63;;;;;;;17.21;90.07;101945.63;5002710;28;20037;-69
2022/06/11 05:40:48;;;;;;;9.25;3.55;;;;;;;17.23;90.16;101941.81;4989774;28;20081;-68
2022/06/11 05:43:14;;;;;;;4.97;2.60;;;;;;;17.27;90.20;101950.16;4989749;28;20460;-68
2022/06/11 05:45:50;;;;;;;7.00;2.50;;;;;;;17.31;90.21;101944.41;5018220;28;20041;-69
2022/06/11 05:48:19;;;;;;;5.47;2.28;;;;;;;17.36;90.27;101951.75;5005183;28;20684;-69
2022/06/11 05:50:48;;;;;;;6.93;2.10;;;;;;;17.41;90.11;101956.50;5003076;28;20432;-69
2022/06/11 05:53:17;;;;;;;5.65;2.50;;;;;;;17.46;89.68;101952.38;4999319;28;20030;-68
2022/06/11 05:55:44;;;;;;;8.88;2.58;;;;;;;17.57;89.27;101953.75;5014074;28;20034;-69
2022/06/11 05:58:16;;;;;;;5.60;2.90;;;;;;;17.70;89.34;101958.41;4992023;28;20029;-69
2022/06/11 06:00:42;;;;;;;10.00;3.17;;;;;;;17.71;88.83;101958.25;5004975;28;20268;-69
2022/06/11 06:03:08;;;;;;;4.28;2.45;;;;;;;17.70;89.01;101956.59;4990796;28;20596;-69
2022/06/11 06:05:33;;;;;;;6.68;2.70;;;;;;;17.69;88.81;101960.22;5005810;28;20038;-69
2022/06/11 06:07:59;;;;;;;9.90;2.85;;;;;;;17.76;88.78;101954.28;4992729;28;20063;-68
2022/06/11 06:10:24;;;;;;;4.55;2.83;;;;;;;17.79;87.87;101962.63;5007108;28;20087;-69
2022/06/11 06:12:50;;;;;;;7.78;2.58;;;;;;;17.81;87.84;101960.63;5001631;28;20034;-68
2022/06/11 06:15:20;;;;;;;7.75;2.83;;;;;;;17.90;87.68;101959.59;5004160;28;20034;-69
2022/06/11 06:17:48;;;;;;;6.82;2.67;;;;;;;17.85;87.65;101959.31;5003531;28;20030;-69
2022/06/11 06:20:15;;;;;;;8.07;4.07;;;;;;;18.03;86.62;101960.84;4992467;28;20034;-69
2022/06/11 06:22:42;;;;;;;8.40;3.00;;;;;;;18.02;86.15;101962.63;5002021;28;20091;-68
2022/06/11 06:25:09;;;;;;;9.43;3.13;;;;;;;18.08;85.26;101964.56;5002852;28;20030;-69
2022/06/11 06:27:34;;;;;;;8.07;2.83;;;;;;;18.05;84.72;101964.91;5000004;28;20033;-69
2022/06/11 06:30:00;;;;;;;9.77;2.40;;;;;;;18.07;84.99;101968.16;5015355;28;20037;-68
2022/06/11 06:32:26;;;;;;;4.30;2.40;;;;;;;18.19;84.87;101962.47;4986255;28;20022;-69
2022/06/11 06:34:51;;;;;;;6.20;2.40;;;;;;;18.22;84.36;101951.63;4999026;28;20033;-69
2022/06/11 06:37:17;;;;;;;7.57;2.65;;;;;;;18.38;83.93;101967.22;5014154;28;20551;-69
2022/06/11 06:39:42;;;;;;;10.27;2.22;;;;;;;18.40;83.12;101967.88;4975338;28;20034;-69
2022/06/11 06:42:08;;;;;;;6.55;1.88;;;;;;;18.43;82.67;101970.13;4991587;28;20403;-68
2022/06/11 06:44:35;;;;;;;4.97;2.03;;;;;;;18.51;82.10;101974.47;4970690;28;20277;-67
2022/06/11 06:47:01;;;;;;;25.05;13.90;;;;;;;18.70;81.09;101974.94;5001945;28;20582;-68
2022/06/11 06:49:26;;;;;;;10.35;3.45;;;;;;;18.71;80.56;101971.31;4986895;28;20042;-68
2022/06/11 06:51:52;;;;;;;6.55;3.15;;;;;;;18.76;79.99;101969.78;4973268;28;20088;-68
2022/06/11 06:54:18;;;;;;;3.83;1.95;;;;;;;18.84;79.90;101969.72;5018770;28;20046;-69
2022/06/11 06:56:44;;;;;;;8.52;2.85;;;;;;;18.98;79.07;101972.50;5002236;28;20034;-68
2022/06/11 06:59:10;;;;;;;5.57;2.15;;;;;;;19.18;77.06;101978.81;4990572;28;20045;-68
2022/06/11 07:01:35;;;;;;;9.05;2.72;;;;;;;19.28;76.13;101977.72;5002783;28;20034;-69
2022/06/11 07:04:01;;;;;;;5.25;1.90;;;;;;;19.26;76.17;101978.69;5004930;28;20025;-69
2022/06/11 07:06:27;;;;;;;4.47;1.63;;;;;;;19.44;75.35;101974.88;5002945;28;20606;-69
2022/06/11 07:08:54;;;;;;;5.65;1.80;;;;;;;19.56;73.89;101980.44;5005549;28;20400;-68
2022/06/11 07:11:20;;;;;;;8.23;2.03;;;;;;;19.77;73.33;101975.19;4969801;28;20022;-69
2022/06/11 07:13:46;;;;;;;8.23;2.00;;;;;;;19.87;73.45;101980.13;5016439;28;20113;-68
2022/06/11 07:16:16;;;;;;;4.45;1.70;;;;;;;20.10;72.27;101984.38;5014834;28;20096;-69
2022/06/11 07:18:48;;;;;;;5.28;2.05;;;;;;;20.36;70.47;101978.50;4989654;28;20463;-69
2022/06/11 07:21:18;;;;;;;6.70;1.85;;;;;;;20.75;68.50;101969.22;5001562;28;20531;-68
2022/06/11 07:23:52;;;;;;;6.97;1.83;;;;;;;20.95;68.24;101978.03;5003912;28;20484;-69
2022/06/11 07:26:23;;;;;;;4.15;1.73;;;;;;;20.87;66.89;101969.47;5002651;28;20037;-68
2022/06/11 07:29:15;;;;;;;4.70;1.50;;;;;;;21.42;67.01;101978.19;5003161;28;20049;-68
2022/06/11 07:31:44;;;;;;;4.20;2.03;;;;;;;21.37;66.23;101977.97;4988770;28;20034;-69
2022/06/11 07:34:11;;;;;;;4.40;1.63;;;;;;;21.36;66.94;101979.81;5005458;28;20026;-68
2022/06/11 07:36:37;;;;;;;4.40;2.10;;;;;;;21.29;67.17;101986.09;4986863;28;20099;-69
2022/06/11 07:39:03;;;;;;;6.40;1.98;;;;;;;21.32;66.13;101983.03;5004714;28;20041;-69
2022/06/11 07:41:28;;;;;;;6.85;1.70;;;;;;;21.41;65.71;101973.91;4988128;28;20061;-68
2022/06/11 07:43:55;;;;;;;10.48;2.53;;;;;;;21.55;65.45;101980.91;5007882;28;20029;-69
2022/06/11 07:46:21;;;;;;;5.25;1.83;;;;;;;21.55;65.95;101982.72;5014420;28;20030;-69
2022/06/11 07:48:48;;;;;;;4.32;1.85;;;;;;;21.79;65.58;101978.66;4993196;28;20518;-68
2022/06/11 07:51:18;;;;;;;7.10;2.20;;;;;;;21.91;65.58;101984.19;5000205;28;20113;-69
2022/06/11 07:53:45;;;;;;;7.35;2.80;;;;;;;22.34;63.56;101978.50;4994541;28;20555;-69
2022/06/11 07:56:10;;;;;;;5.53;1.50;;;;;;;22.42;62.97;101985.38;4985649;28;20174;-69
2022/06/11 07:58:36;;;;;;;4.70;2.13;;;;;;;22.50;63.32;101987.81;5002658;28;20081;-68
2022/06/11 08:01:01;;;;;;;8.13;1.83;;;;;;;22.78;61.90;101989.34;4989969;28;20034;-69
2022/06/11 08:03:27;;;;;;;5.55;1.85;;;;;;;22.92;61.55;101980.34;4988516;28;20408;-69
2022/06/11 08:05:54;;;;;;;3.85;1.85;;;;;;;23.99;59.00;101985.84;4995135;28;20049;-68
2022/06/11 08:08:21;;;;;;;10.88;1.88;;;;;;;24.37;56.29;101987.50;5003163;28;20124;-69
2022/06/11 08:10:47;;;;;;;7.45;1.90;;;;;;;24.78;54.19;101985.28;4994872;28;20049;-69
2022/06/11 08:13:13;;;;;;;7.03;1.88;;;;;;;25.01;52.67;101987.22;4992815;28;20056;-69
2022/06/11 08:15:41;;;;;;;4.30;2.08;;;;;;;25.22;53.43;101985.91;4992098;28;20125;-69
2022/06/11 08:18:07;;;;;;;6.55;1.65;;;;;;;24.47;54.38;101987.03;5004662;28;20041;-69
2022/06/11 08:20:34;;;;;;;7.30;2.20;;;;;;;23.78;56.61;101988.84;5004563;28;20037;-69
2022/06/11 08:22:59;;;;;;;4.05;1.50;;;;;;;23.28;58.28;101993.03;5016775;28;20033;-69
2022/06/11 08:25:25;;;;;;;6.95;2.10;;;;;;;23.01;58.44;101994.94;4989136;28;20040;-69
2022/06/11 08:27:51;;;;;;;8.70;1.75;;;;;;;22.96;58.94;101989.47;4989012;28;20105;-69
2022/06/11 08:30:20;;;;;;;5.82;2.03;;;;;;;23.09;59.25;101997.41;5002888;28;20401;-69
2022/06/11 08:32:47;;;;;;;7.78;1.67;;;;;;;23.12;59.91;101998.81;5006083;28;20396;-69
2022/06/11 08:35:13;;;;;;;4.32;1.48;;;;;;;23.15;60.83;102002.84;5001116;28;20092;-69
2022/06/11 08:37:40;;;;;;;6.68;1.75;;;;;;;23.07;59.91;101999.41;5017998;28;20484;-69
2022/06/11 08:40:11;;;;;;;7.38;1.85;;;;;;;23.06;60.54;102002.28;4990241;28;20045;-69
2022/06/11 08:42:42;;;;;;;6.53;2.10;;;;;;;23.24;60.31;102002.38;4973849;28;20044;-68
2022/06/11 08:45:23;;;;;;;3.65;1.40;;;;;;;23.07;60.08;102004.72;4989711;28;20129;-69
2022/06/11 08:47:59;;;;;;;5.47;2.22;;;;;;;23.09;60.13;102001.84;4985948;28;20390;-69
2022/06/11 08:50:32;;;;;;;7.28;1.95;;;;;;;23.05;61.28;102008.59;5020086;28;20056;-69
2022/06/11 08:52:59;;;;;;;8.80;2.08;;;;;;;23.25;60.92;102005.88;5018630;28;20017;-68
2022/06/11 08:55:33;;;;;;;8.30;2.95;;;;;;;23.41;59.24;102005.34;4985837;28;20981;-69
2022/06/11 08:58:05;;;;;;;5.38;1.85;;;;;;;23.38;60.20;102005.00;4989320;28;20129;-69
2022/06/11 09:00:47;;;;;;;5.73;1.93;;;;;;;23.50;58.42;101997.97;4987471;28;20042;-69
2022/06/11 09:03:30;;;;;;;9.48;1.75;;;;;;;23.98;57.76;101993.97;5007315;28;20084;-69
2022/06/11 09:06:04;;;;;;;5.10;2.20;;;;;;;23.95;57.12;101999.72;4987319;28;20038;-69
2022/06/11 09:09:27;;;;;;;6.80;2.05;;;;;;;24.05;57.52;101998.22;5006655;28;20033;-69
2022/06/11 09:12:01;;;;;;;8.10;1.80;;;;;;;24.18;57.59;101994.63;4986501;28;20089;-69
2022/06/11 09:14:59;;;;;;;6.53;2.13;;;;;;;24.16;57.91;101994.03;4969209;28;20200;-69
2022/06/11 09:17:57;;;;;;;5.40;1.70;;;;;;;24.00;58.16;101992.75;4984161;28;20038;-69
2022/06/11 09:20:50;;;;;;;6.43;2.20;;;;;;;24.07;57.88;101993.53;5005326;28;20107;-69
2022/06/11 09:23:36;;;;;;;5.82;2.00;;;;;;;24.19;56.74;101990.97;5020639;28;20037;-69
2022/06/11 09:26:19;;;;;;;4.75;2.47;;;;;;;24.26;56.02;101994.38;4988307;28;20038;-69
2022/06/11 09:28:48;;;;;;;7.50;2.50;;;;;;;24.04;58.61;101998.44;5004395;28;20041;-69
2022/06/11 09:31:26;;;;;;;6.47;2.30;;;;;;;24.16;56.44;101999.34;5019120;28;20511;-69
2022/06/11 09:34:05;;;;;;;8.45;2.83;;;;;;;24.24;54.72;101999.06;5019951;28;20474;-69
2022/06/11 09:36:37;;;;;;;7.00;2.17;;;;;;;24.36;56.58;101998.34;5002433;28;20571;-69
2022/06/11 09:39:21;;;;;;;6.72;1.83;;;;;;;24.44;55.52;101998.84;5006398;28;20037;-70
2022/06/11 09:42:27;;;;;;;3.95;1.63;;;;;;;24.19;55.08;102004.22;4991301;28;20045;-69
2022/06/11 09:45:01;;;;;;;6.30;1.70;;;;;;;24.40;55.49;102004.84;4990214;28;20050;-69
2022/06/11 09:47:30;;;;;;;5.20;1.70;;;;;;;24.41;54.69;102015.22;5003632;28;20103;-69
2022/06/11 09:50:22;;;;;;;6.72;2.03;;;;;;;24.58;54.44;102001.41;4984090;28;20038;-69
2022/06/11 09:52:50;;;;;;;3.85;1.98;;;;;;;24.78;54.28;101995.88;5001814;28;20087;-69
2022/06/11 09:55:29;;;;;;;5.70;1.52;;;;;;;25.15;54.12;102003.78;4990050;28;20029;-69
2022/06/11 09:58:11;;;;;;;9.18;2.28;;;;;;;24.88;53.56;102001.47;4983534;28;20096;-69
2022/06/11 10:00:42;;;;;;;9.83;2.30;;;;;;;24.47;52.84;102008.22;5003719;28;20064;-69
2022/06/11 10:03:35;;;;;;;8.00;2.00;;;;;;;24.21;53.85;102010.09;5002135;28;20212;-69
2022/06/11 10:06:07;;;;;;;3.10;1.60;;;;;;;24.19;55.22;102014.81;5000064;28;20534;-69
2022/06/11 10:08:38;;;;;;;8.33;1.97;;;;;;;24.38;53.96;102013.00;4985576;28;20532;-70
2022/06/11 10:11:05;;;;;;;5.68;1.88;;;;;;;24.65;53.53;102004.78;5001039;28;20121;-70
2022/06/11 10:13:37;;;;;;;8.30;2.67;;;;;;;24.82;53.51;102012.97;5003829;28;20038;-68
2022/06/11 10:16:22;;;;;;;6.32;2.15;;;;;;;25.23;51.71;102006.97;5001590;28;20042;-69
2022/06/11 10:18:50;;;;;;;6.32;2.30;;;;;;;25.35;52.40;102003.53;5000961;28;20093;-69
2022/06/11 10:21:19;;;;;;;8.75;1.92;;;;;;;25.48;52.99;102006.00;4987433;28;20037;-69
2022/06/11 10:23:51;;;;;;;5.78;1.80;;;;;;;25.78;50.42;102002.47;4976471;28;20069;-69
2022/06/11 10:26:25;;;;;;;6.40;1.92;;;;;;;25.50;49.57;102008.44;4967093;28;20036;-70
2022/06/11 10:29:13;;;;;;;8.52;2.22;;;;;;;25.77;50.09;102001.69;4972851;28;20053;-69
2022/06/11 10:31:52;;;;;;;7.45;2.72;;;;;;;25.75;51.38;102006.41;5001777;28;20045;-69
2022/06/11 10:34:28;;;;;;;11.57;3.58;;;;;;;25.48;50.15;101998.03;4989661;28;20031;-69
2022/06/11 10:36:59;;;;;;;8.75;2.00;;;;;;;25.83;51.03;101998.09;5001342;28;20052;-70
2022/06/11 10:39:42;;;;;;;6.40;2.15;;;;;;;26.27;50.99;101989.81;4983694;28;20045;-69
2022/06/11 10:42:29;;;;;;;7.95;2.72;;;;;;;26.44;50.44;101989.13;4989114;28;20151;-69
2022/06/11 10:44:56;;;;;;;6.35;1.98;;;;;;;26.54;48.87;101981.34;5000909;28;20480;-69
2022/06/11 10:47:42;;;;;;;6.05;1.85;;;;;;;26.58;49.12;101980.66;4999303;28;20392;-69
2022/06/11 10:50:11;;;;;;;7.05;2.30;;;;;;;26.47;48.61;101983.34;5003609;28;20037;-69
2022/06/11 10:53:00;;;;;;;5.13;1.60;;;;;;;26.69;50.29;101971.06;4983575;28;20037;-69
2022/06/11 10:55:47;;;;;;;10.77;2.15;;;;;;;26.97;48.17;101972.94;5005304;28;20116;-69
2022/06/11 10:58:15;;;;;;;5.60;1.60;;;;;;;27.31;47.71;101978.34;5003472;28;20030;-69
2022/06/11 11:00:50;;;;;;;8.40;2.60;;;;;;;27.26;47.71;101980.91;5012185;28;20496;-70
2022/06/11 11:03:29;;;;;;;5.78;1.70;;;;;;;26.91;47.30;101984.50;5006781;28;20056;-69
2022/06/11 11:06:08;;;;;;;3.83;2.00;;;;;;;27.24;46.59;101977.66;4988848;28;20033;-70
2022/06/11 11:08:36;;;;;;;5.15;1.60;;;;;;;27.24;45.84;101977.66;4987885;28;20234;-70
2022/06/11 11:11:07;;;;;;;8.27;1.67;;;;;;;26.96;47.50;101976.63;5016692;28;20026;-69
2022/06/11 11:13:40;;;;;;;6.38;1.65;;;;;;;26.71;47.34;101982.28;5003631;28;20052;-69
2022/06/11 11:16:22;;;;;;;7.35;2.05;;;;;;;26.53;46.34;101966.44;4986221;28;20456;-69
2022/06/11 11:18:56;;;;;;;6.55;1.27;;;;;;;27.09;47.45;101978.19;5004144;28;20048;-69
2022/06/11 11:21:33;;;;;;;11.93;1.70;;;;;;;26.92;47.91;101974.69;4986055;28;20038;-69
2022/06/11 11:24:13;;;;;;;7.05;1.55;;;;;;;26.82;46.44;101980.59;5000639;28;20397;-69
2022/06/11 11:26:55;;;;;;;3.15;1.30;;;;;;;26.76;46.84;101976.22;4984930;28;20068;-69
2022/06/11 11:29:32;;;;;;;4.38;1.48;;;;;;;26.81;49.26;101979.00;4998263;28;20488;-70
2022/06/11 11:32:06;;;;;;;4.45;1.42;;;;;;;27.04;46.65;101974.63;4981501;28;20109;-69
2022/06/11 11:34:42;;;;;;;5.97;1.40;;;;;;;27.19;46.24;101973.03;4987361;28;20461;-69
2022/06/11 11:37:14;;;;;;;3.15;1.27;;;;;;;26.93;47.29;101963.78;4986667;28;20752;-70
2022/06/11 11:39:51;;;;;;;11.15;3.30;;;;;;;26.77;47.61;101976.00;5000398;28;20038;-70
2022/06/11 11:42:22;;;;;;;6.03;1.67;;;;;;;26.77;46.70;101967.22;4997861;28;20407;-69
2022/06/11 11:44:50;;;;;;;6.15;1.55;;;;;;;26.92;47.10;101959.53;4988135;28;20041;-69
2022/06/11 11:47:24;;;;;;;6.90;1.30;;;;;;;27.00;46.95;101955.66;4983879;28;20177;-70
2022/06/11 11:49:55;;;;;;;8.05;1.88;;;;;;;27.15;47.49;101953.28;5001113;28;20033;-69